Worman, Pennsylvania
Current Conditions -  °F | °C
As of 2:54 PM on Monday 24 Nov 2014 (Local Time) from KPTW Reporting Station
Scattered Clouds Scattered Clouds  
Wind Chill: 68°   Ceiling: Unl
Heat Index: 68°   Visibility: 10mi
Dew Point: 54°   Wind: 14mph
Humidity: 61%   Direction: 210°SSW
Pressure: 29.6"   Gusts: 25mph
Location:  40.2688°N, 75.7411°W
Report Text: KPTW 241954Z AUTO 21012G22KT 10SM SCT033 20/12 A2960 RMK AO2 PK WND 21027/1914 SLP022 T02000122
Loading
Personal Weather Stations






























Interactive Weather Map New forecast layout! Learn more

10-Day Weather Forecast

Advertisements
Track Severe Weather on mobile